sensor_id;sensor_type;location;lat;lon;timestamp;P1;durP1;ratioP1;P2;durP2;ratioP2
16662;SDS011;8445;51.270;9.434;2023-03-01T00:01:55;10.50;;;6.93;;
16662;SDS011;8445;51.270;9.434;2023-03-01T00:04:20;10.17;;;8.00;;
16662;SDS011;8445;51.270;9.434;2023-03-01T00:06:46;11.07;;;8.60;;
16662;SDS011;8445;51.270;9.434;2023-03-01T00:09:13;15.17;;;8.83;;
16662;SDS011;8445;51.270;9.434;2023-03-01T00:11:39;13.40;;;9.03;;
16662;SDS011;8445;51.270;9.434;2023-03-01T00:14:05;10.83;;;8.40;;
16662;SDS011;8445;51.270;9.434;2023-03-01T00:16:35;11.13;;;7.80;;
16662;SDS011;8445;51.270;9.434;2023-03-01T00:19:03;11.33;;;7.30;;
16662;SDS011;8445;51.270;9.434;2023-03-01T00:21:29;13.80;;;7.63;;
16662;SDS011;8445;51.270;9.434;2023-03-01T00:23:55;10.57;;;8.10;;
16662;SDS011;8445;51.270;9.434;2023-03-01T00:26:21;12.17;;;8.07;;
16662;SDS011;8445;51.270;9.434;2023-03-01T00:28:48;13.27;;;8.00;;
16662;SDS011;8445;51.270;9.434;2023-03-01T00:31:19;12.00;;;8.20;;
16662;SDS011;8445;51.270;9.434;2023-03-01T00:33:46;10.30;;;7.87;;
16662;SDS011;8445;51.270;9.434;2023-03-01T00:36:12;10.30;;;8.40;;
16662;SDS011;8445;51.270;9.434;2023-03-01T00:38:40;11.77;;;8.03;;
16662;SDS011;8445;51.270;9.434;2023-03-01T00:41:11;10.67;;;8.30;;
16662;SDS011;8445;51.270;9.434;2023-03-01T00:43:38;11.50;;;7.77;;
16662;SDS011;8445;51.270;9.434;2023-03-01T00:46:04;11.17;;;8.07;;
16662;SDS011;8445;51.270;9.434;2023-03-01T00:48:32;9.50;;;8.50;;
16662;SDS011;8445;51.270;9.434;2023-03-01T00:51:03;12.10;;;8.90;;
16662;SDS011;8445;51.270;9.434;2023-03-01T00:53:30;11.30;;;8.70;;
16662;SDS011;8445;51.270;9.434;2023-03-01T00:55:56;12.47;;;8.47;;
16662;SDS011;8445;51.270;9.434;2023-03-01T00:58:23;10.67;;;8.53;;
16662;SDS011;8445;51.270;9.434;2023-03-01T01:00:49;11.83;;;8.10;;
16662;SDS011;8445;51.270;9.434;2023-03-01T01:03:15;11.00;;;8.37;;
16662;SDS011;8445;51.270;9.434;2023-03-01T01:05:40;14.60;;;8.77;;
16662;SDS011;8445;51.270;9.434;2023-03-01T01:08:06;13.23;;;9.20;;
16662;SDS011;8445;51.270;9.434;2023-03-01T01:10:33;14.57;;;8.97;;
16662;SDS011;8445;51.270;9.434;2023-03-01T01:12:59;11.53;;;9.20;;
16662;SDS011;8445;51.270;9.434;2023-03-01T01:15:24;13.67;;;9.20;;
16662;SDS011;8445;51.270;9.434;2023-03-01T01:17:50;14.53;;;10.00;;
16662;SDS011;8445;51.270;9.434;2023-03-01T01:20:16;12.83;;;8.60;;
16662;SDS011;8445;51.270;9.434;2023-03-01T01:22:41;12.57;;;9.90;;
16662;SDS011;8445;51.270;9.434;2023-03-01T01:25:07;18.00;;;10.27;;
16662;SDS011;8445;51.270;9.434;2023-03-01T01:27:33;17.07;;;10.30;;
16662;SDS011;8445;51.270;9.434;2023-03-01T01:29:58;14.43;;;9.77;;
16662;SDS011;8445;51.270;9.434;2023-03-01T01:32:24;13.20;;;9.30;;
16662;SDS011;8445;51.270;9.434;2023-03-01T01:34:49;15.17;;;10.50;;
16662;SDS011;8445;51.270;9.434;2023-03-01T01:37:15;15.10;;;9.60;;
16662;SDS011;8445;51.270;9.434;2023-03-01T01:39:40;15.87;;;11.00;;
16662;SDS011;8445;51.270;9.434;2023-03-01T01:42:06;14.97;;;10.07;;
16662;SDS011;8445;51.270;9.434;2023-03-01T01:44:37;16.80;;;10.90;;
16662;SDS011;8445;51.270;9.434;2023-03-01T01:49:44;16.37;;;10.30;;
16662;SDS011;8445;51.270;9.434;2023-03-01T01:52:15;16.83;;;10.87;;
16662;SDS011;8445;51.270;9.434;2023-03-01T01:54:49;18.80;;;10.77;;
16662;SDS011;8445;51.270;9.434;2023-03-01T01:57:23;20.57;;;11.87;;
16662;SDS011;8445;51.270;9.434;2023-03-01T02:00:00;17.70;;;10.83;;
16662;SDS011;8445;51.270;9.434;2023-03-01T02:02:38;17.83;;;11.50;;
16662;SDS011;8445;51.270;9.434;2023-03-01T02:05:08;19.67;;;12.10;;
16662;SDS011;8445;51.270;9.434;2023-03-01T02:07:49;17.63;;;11.43;;
16662;SDS011;8445;51.270;9.434;2023-03-01T02:10:18;17.93;;;10.80;;
16662;SDS011;8445;51.270;9.434;2023-03-01T02:12:46;17.73;;;9.70;;
16662;SDS011;8445;51.270;9.434;2023-03-01T02:15:11;16.07;;;11.20;;
16662;SDS011;8445;51.270;9.434;2023-03-01T02:17:37;16.47;;;11.10;;
16662;SDS011;8445;51.270;9.434;2023-03-01T02:22:52;17.90;;;12.70;;
16662;SDS011;8445;51.270;9.434;2023-03-01T02:28:00;20.60;;;12.40;;
16662;SDS011;8445;51.270;9.434;2023-03-01T02:30:35;20.57;;;13.30;;
16662;SDS011;8445;51.270;9.434;2023-03-01T02:33:01;20.40;;;12.37;;
16662;SDS011;8445;51.270;9.434;2023-03-01T02:35:36;20.47;;;12.93;;
16662;SDS011;8445;51.270;9.434;2023-03-01T02:38:05;19.53;;;12.70;;
16662;SDS011;8445;51.270;9.434;2023-03-01T02:40:33;19.83;;;12.97;;
16662;SDS011;8445;51.270;9.434;2023-03-01T02:43:02;18.97;;;12.40;;
16662;SDS011;8445;51.270;9.434;2023-03-01T02:45:30;19.03;;;12.20;;
16662;SDS011;8445;51.270;9.434;2023-03-01T02:47:56;18.90;;;13.13;;
16662;SDS011;8445;51.270;9.434;2023-03-01T02:55:34;21.00;;;12.13;;
16662;SDS011;8445;51.270;9.434;2023-03-01T02:58:01;21.30;;;13.80;;
16662;SDS011;8445;51.270;9.434;2023-03-01T03:00:33;23.07;;;13.30;;
16662;SDS011;8445;51.270;9.434;2023-03-01T03:03:05;23.97;;;14.60;;
16662;SDS011;8445;51.270;9.434;2023-03-01T03:05:34;26.97;;;14.93;;
16662;SDS011;8445;51.270;9.434;2023-03-01T03:08:00;24.97;;;14.33;;
16662;SDS011;8445;51.270;9.434;2023-03-01T03:10:31;18.03;;;11.20;;
16662;SDS011;8445;51.270;9.434;2023-03-01T03:13:03;18.70;;;12.60;;
16662;SDS011;8445;51.270;9.434;2023-03-01T03:15:31;20.17;;;12.57;;
16662;SDS011;8445;51.270;9.434;2023-03-01T03:17:57;18.07;;;11.57;;
16662;SDS011;8445;51.270;9.434;2023-03-01T03:20:26;20.90;;;12.67;;
16662;SDS011;8445;51.270;9.434;2023-03-01T03:22:56;21.33;;;13.77;;
16662;SDS011;8445;51.270;9.434;2023-03-01T03:25:24;19.27;;;13.00;;
16662;SDS011;8445;51.270;9.434;2023-03-01T03:27:51;20.03;;;11.87;;
16662;SDS011;8445;51.270;9.434;2023-03-01T03:30:22;24.67;;;13.87;;
16662;SDS011;8445;51.270;9.434;2023-03-01T03:32:49;17.67;;;13.00;;
16662;SDS011;8445;51.270;9.434;2023-03-01T03:35:40;22.90;;;12.67;;
16662;SDS011;8445;51.270;9.434;2023-03-01T03:38:07;24.10;;;13.37;;
16662;SDS011;8445;51.270;9.434;2023-03-01T03:40:41;20.60;;;12.30;;
16662;SDS011;8445;51.270;9.434;2023-03-01T03:43:10;18.53;;;12.30;;
16662;SDS011;8445;51.270;9.434;2023-03-01T03:45:38;20.73;;;13.10;;
16662;SDS011;8445;51.270;9.434;2023-03-01T03:48:04;19.13;;;13.23;;
16662;SDS011;8445;51.270;9.434;2023-03-01T03:50:31;22.33;;;14.20;;
16662;SDS011;8445;51.270;9.434;2023-03-01T03:52:57;19.67;;;13.00;;
16662;SDS011;8445;51.270;9.434;2023-03-01T03:55:22;18.87;;;12.43;;
16662;SDS011;8445;51.270;9.434;2023-03-01T03:57:53;20.03;;;13.17;;
16662;SDS011;8445;51.270;9.434;2023-03-01T04:00:19;22.20;;;13.10;;
16662;SDS011;8445;51.270;9.434;2023-03-01T04:02:46;21.67;;;13.73;;
16662;SDS011;8445;51.270;9.434;2023-03-01T04:05:13;21.03;;;13.47;;
16662;SDS011;8445;51.270;9.434;2023-03-01T04:07:40;20.50;;;13.07;;
16662;SDS011;8445;51.270;9.434;2023-03-01T04:10:09;21.33;;;12.97;;
16662;SDS011;8445;51.270;9.434;2023-03-01T04:12:36;20.17;;;13.37;;
16662;SDS011;8445;51.270;9.434;2023-03-01T04:15:03;22.47;;;12.83;;
16662;SDS011;8445;51.270;9.434;2023-03-01T04:17:38;21.83;;;13.00;;
16662;SDS011;8445;51.270;9.434;2023-03-01T04:20:11;22.77;;;12.63;;
16662;SDS011;8445;51.270;9.434;2023-03-01T04:22:56;23.77;;;14.30;;
16662;SDS011;8445;51.270;9.434;2023-03-01T04:25:33;17.93;;;13.20;;
16662;SDS011;8445;51.270;9.434;2023-03-01T04:27:59;20.03;;;13.03;;
16662;SDS011;8445;51.270;9.434;2023-03-01T04:30:24;24.57;;;13.47;;
16662;SDS011;8445;51.270;9.434;2023-03-01T04:32:52;20.90;;;13.43;;
16662;SDS011;8445;51.270;9.434;2023-03-01T04:35:18;20.93;;;13.63;;
16662;SDS011;8445;51.270;9.434;2023-03-01T04:37:43;24.23;;;14.90;;
16662;SDS011;8445;51.270;9.434;2023-03-01T04:40:10;23.23;;;14.47;;
16662;SDS011;8445;51.270;9.434;2023-03-01T04:42:41;24.10;;;15.57;;
16662;SDS011;8445;51.270;9.434;2023-03-01T04:45:07;24.60;;;14.97;;
16662;SDS011;8445;51.270;9.434;2023-03-01T04:47:41;24.13;;;13.80;;
16662;SDS011;8445;51.270;9.434;2023-03-01T04:50:10;22.40;;;14.03;;
16662;SDS011;8445;51.270;9.434;2023-03-01T04:52:37;21.20;;;14.73;;
16662;SDS011;8445;51.270;9.434;2023-03-01T04:55:03;27.70;;;14.07;;
16662;SDS011;8445;51.270;9.434;2023-03-01T04:57:29;21.87;;;15.27;;
16662;SDS011;8445;51.270;9.434;2023-03-01T04:59:55;23.83;;;14.10;;
16662;SDS011;8445;51.270;9.434;2023-03-01T05:02:21;23.27;;;14.37;;
16662;SDS011;8445;51.270;9.434;2023-03-01T05:04:49;30.00;;;15.70;;
16662;SDS011;8445;51.270;9.434;2023-03-01T05:07:14;25.43;;;15.23;;
16662;SDS011;8445;51.270;9.434;2023-03-01T05:09:47;24.60;;;16.70;;
16662;SDS011;8445;51.270;9.434;2023-03-01T05:12:13;24.87;;;14.77;;
16662;SDS011;8445;51.270;9.434;2023-03-01T05:14:39;20.93;;;14.23;;
16662;SDS011;8445;51.270;9.434;2023-03-01T05:17:05;21.43;;;14.17;;
16662;SDS011;8445;51.270;9.434;2023-03-01T05:19:31;27.20;;;14.67;;
16662;SDS011;8445;51.270;9.434;2023-03-01T05:21:58;26.63;;;15.80;;
16662;SDS011;8445;51.270;9.434;2023-03-01T05:24:27;29.33;;;15.73;;
16662;SDS011;8445;51.270;9.434;2023-03-01T05:26:54;26.47;;;14.90;;
16662;SDS011;8445;51.270;9.434;2023-03-01T05:29:20;30.30;;;15.50;;
16662;SDS011;8445;51.270;9.434;2023-03-01T05:31:59;24.53;;;14.63;;
16662;SDS011;8445;51.270;9.434;2023-03-01T05:34:30;22.03;;;14.10;;
16662;SDS011;8445;51.270;9.434;2023-03-01T05:36:57;26.37;;;15.00;;
16662;SDS011;8445;51.270;9.434;2023-03-01T05:39:24;137.00;;;63.43;;
16662;SDS011;8445;51.270;9.434;2023-03-01T05:41:52;33.97;;;18.90;;
16662;SDS011;8445;51.270;9.434;2023-03-01T05:44:18;25.87;;;15.73;;
16662;SDS011;8445;51.270;9.434;2023-03-01T05:46:44;27.90;;;16.07;;
16662;SDS011;8445;51.270;9.434;2023-03-01T05:49:12;27.37;;;16.07;;
16662;SDS011;8445;51.270;9.434;2023-03-01T05:51:42;21.87;;;14.53;;
16662;SDS011;8445;51.270;9.434;2023-03-01T05:54:12;27.07;;;16.30;;
16662;SDS011;8445;51.270;9.434;2023-03-01T05:56:37;28.17;;;16.17;;
16662;SDS011;8445;51.270;9.434;2023-03-01T05:59:03;25.73;;;15.27;;
16662;SDS011;8445;51.270;9.434;2023-03-01T06:01:33;24.00;;;15.57;;
16662;SDS011;8445;51.270;9.434;2023-03-01T06:03:59;27.90;;;15.30;;
16662;SDS011;8445;51.270;9.434;2023-03-01T06:06:24;23.47;;;13.20;;
16662;SDS011;8445;51.270;9.434;2023-03-01T06:08:50;22.53;;;15.10;;
16662;SDS011;8445;51.270;9.434;2023-03-01T06:11:16;24.37;;;15.13;;
16662;SDS011;8445;51.270;9.434;2023-03-01T06:13:42;26.63;;;13.40;;
16662;SDS011;8445;51.270;9.434;2023-03-01T06:16:09;20.50;;;13.83;;
16662;SDS011;8445;51.270;9.434;2023-03-01T06:18:35;22.37;;;13.77;;
16662;SDS011;8445;51.270;9.434;2023-03-01T06:21:02;26.23;;;13.27;;
16662;SDS011;8445;51.270;9.434;2023-03-01T06:23:28;32.37;;;16.73;;
16662;SDS011;8445;51.270;9.434;2023-03-01T06:25:54;27.40;;;16.47;;
16662;SDS011;8445;51.270;9.434;2023-03-01T06:28:19;27.23;;;16.53;;
16662;SDS011;8445;51.270;9.434;2023-03-01T06:30:45;25.63;;;15.20;;
16662;SDS011;8445;51.270;9.434;2023-03-01T06:33:11;24.50;;;16.20;;
16662;SDS011;8445;51.270;9.434;2023-03-01T06:35:37;25.90;;;14.93;;
16662;SDS011;8445;51.270;9.434;2023-03-01T06:38:03;23.73;;;15.53;;
16662;SDS011;8445;51.270;9.434;2023-03-01T06:40:29;21.80;;;14.00;;
16662;SDS011;8445;51.270;9.434;2023-03-01T06:42:56;22.37;;;14.20;;
16662;SDS011;8445;51.270;9.434;2023-03-01T06:45:22;22.30;;;14.10;;
16662;SDS011;8445;51.270;9.434;2023-03-01T06:47:47;21.93;;;12.47;;
16662;SDS011;8445;51.270;9.434;2023-03-01T06:50:14;20.67;;;13.43;;
16662;SDS011;8445;51.270;9.434;2023-03-01T06:52:40;21.77;;;14.03;;
16662;SDS011;8445;51.270;9.434;2023-03-01T06:55:06;19.30;;;11.77;;
16662;SDS011;8445;51.270;9.434;2023-03-01T06:57:32;19.20;;;12.93;;
16662;SDS011;8445;51.270;9.434;2023-03-01T06:59:57;18.50;;;11.40;;
16662;SDS011;8445;51.270;9.434;2023-03-01T07:02:23;24.40;;;15.10;;
16662;SDS011;8445;51.270;9.434;2023-03-01T07:04:49;17.20;;;12.13;;
16662;SDS011;8445;51.270;9.434;2023-03-01T07:07:15;14.53;;;9.70;;
16662;SDS011;8445;51.270;9.434;2023-03-01T07:09:46;14.10;;;10.50;;
16662;SDS011;8445;51.270;9.434;2023-03-01T07:12:11;14.03;;;9.63;;
16662;SDS011;8445;51.270;9.434;2023-03-01T07:14:37;18.93;;;11.23;;
16662;SDS011;8445;51.270;9.434;2023-03-01T07:17:02;14.23;;;9.33;;
16662;SDS011;8445;51.270;9.434;2023-03-01T07:19:28;14.33;;;10.07;;
16662;SDS011;8445;51.270;9.434;2023-03-01T07:21:53;13.37;;;8.10;;
16662;SDS011;8445;51.270;9.434;2023-03-01T07:24:20;16.70;;;10.43;;
16662;SDS011;8445;51.270;9.434;2023-03-01T07:26:48;15.80;;;10.13;;
16662;SDS011;8445;51.270;9.434;2023-03-01T07:29:15;14.80;;;8.57;;
16662;SDS011;8445;51.270;9.434;2023-03-01T07:31:41;13.20;;;9.07;;
16662;SDS011;8445;51.270;9.434;2023-03-01T07:34:06;13.93;;;9.07;;
16662;SDS011;8445;51.270;9.434;2023-03-01T07:36:32;10.73;;;7.47;;
16662;SDS011;8445;51.270;9.434;2023-03-01T07:38:57;10.93;;;8.20;;
16662;SDS011;8445;51.270;9.434;2023-03-01T07:41:23;10.63;;;7.03;;
16662;SDS011;8445;51.270;9.434;2023-03-01T07:43:48;13.30;;;8.07;;
16662;SDS011;8445;51.270;9.434;2023-03-01T07:46:14;12.07;;;8.83;;
16662;SDS011;8445;51.270;9.434;2023-03-01T07:48:39;9.90;;;7.53;;
16662;SDS011;8445;51.270;9.434;2023-03-01T07:51:05;12.13;;;7.87;;
16662;SDS011;8445;51.270;9.434;2023-03-01T07:53:32;11.33;;;7.53;;
16662;SDS011;8445;51.270;9.434;2023-03-01T07:56:02;11.70;;;7.20;;
16662;SDS011;8445;51.270;9.434;2023-03-01T07:58:29;10.23;;;8.10;;
16662;SDS011;8445;51.270;9.434;2023-03-01T08:01:01;10.70;;;7.67;;
16662;SDS011;8445;51.270;9.434;2023-03-01T08:03:36;11.20;;;7.80;;
16662;SDS011;8445;51.270;9.434;2023-03-01T08:06:02;10.73;;;7.00;;
16662;SDS011;8445;51.270;9.434;2023-03-01T08:08:29;12.03;;;7.77;;
16662;SDS011;8445;51.270;9.434;2023-03-01T08:10:56;6.87;;;4.53;;
16662;SDS011;8445;51.270;9.434;2023-03-01T08:13:22;6.87;;;5.03;;
16662;SDS011;8445;51.270;9.434;2023-03-01T08:15:48;10.33;;;7.30;;
16662;SDS011;8445;51.270;9.434;2023-03-01T08:18:14;11.63;;;6.83;;
16662;SDS011;8445;51.270;9.434;2023-03-01T08:20:42;14.57;;;6.97;;
16662;SDS011;8445;51.270;9.434;2023-03-01T08:23:07;12.03;;;7.10;;
16662;SDS011;8445;51.270;9.434;2023-03-01T08:25:33;9.63;;;6.23;;
16662;SDS011;8445;51.270;9.434;2023-03-01T08:27:58;10.50;;;7.00;;
16662;SDS011;8445;51.270;9.434;2023-03-01T08:30:24;8.37;;;5.73;;
16662;SDS011;8445;51.270;9.434;2023-03-01T08:32:49;10.17;;;7.03;;
16662;SDS011;8445;51.270;9.434;2023-03-01T08:35:16;10.37;;;6.90;;
16662;SDS011;8445;51.270;9.434;2023-03-01T08:37:41;12.23;;;7.00;;
16662;SDS011;8445;51.270;9.434;2023-03-01T08:40:15;7.43;;;5.77;;
16662;SDS011;8445;51.270;9.434;2023-03-01T08:42:41;11.70;;;6.50;;
16662;SDS011;8445;51.270;9.434;2023-03-01T08:45:10;9.07;;;6.40;;
16662;SDS011;8445;51.270;9.434;2023-03-01T08:47:36;9.33;;;6.53;;
16662;SDS011;8445;51.270;9.434;2023-03-01T08:50:05;7.13;;;5.17;;
16662;SDS011;8445;51.270;9.434;2023-03-01T08:52:34;8.43;;;5.40;;
16662;SDS011;8445;51.270;9.434;2023-03-01T08:55:02;9.53;;;6.57;;
16662;SDS011;8445;51.270;9.434;2023-03-01T08:57:27;11.73;;;7.53;;
16662;SDS011;8445;51.270;9.434;2023-03-01T08:59:56;11.43;;;7.40;;
16662;SDS011;8445;51.270;9.434;2023-03-01T09:02:21;10.57;;;6.27;;
16662;SDS011;8445;51.270;9.434;2023-03-01T09:04:50;11.60;;;6.23;;
16662;SDS011;8445;51.270;9.434;2023-03-01T09:07:16;6.77;;;5.00;;
16662;SDS011;8445;51.270;9.434;2023-03-01T09:09:41;10.20;;;6.00;;
16662;SDS011;8445;51.270;9.434;2023-03-01T09:12:06;12.17;;;6.87;;
16662;SDS011;8445;51.270;9.434;2023-03-01T09:14:32;11.80;;;7.10;;
16662;SDS011;8445;51.270;9.434;2023-03-01T09:16:57;10.13;;;5.17;;
16662;SDS011;8445;51.270;9.434;2023-03-01T09:19:23;10.30;;;6.80;;
16662;SDS011;8445;51.270;9.434;2023-03-01T09:21:48;8.40;;;6.20;;
16662;SDS011;8445;51.270;9.434;2023-03-01T09:24:18;9.03;;;6.43;;
16662;SDS011;8445;51.270;9.434;2023-03-01T09:26:47;13.37;;;6.63;;
16662;SDS011;8445;51.270;9.434;2023-03-01T09:29:14;10.57;;;6.13;;
16662;SDS011;8445;51.270;9.434;2023-03-01T09:31:40;12.10;;;6.43;;
16662;SDS011;8445;51.270;9.434;2023-03-01T09:34:06;8.57;;;6.30;;
16662;SDS011;8445;51.270;9.434;2023-03-01T09:36:32;11.07;;;7.10;;
16662;SDS011;8445;51.270;9.434;2023-03-01T09:38:59;13.40;;;6.93;;
16662;SDS011;8445;51.270;9.434;2023-03-01T09:44:18;10.80;;;6.83;;
16662;SDS011;8445;51.270;9.434;2023-03-01T09:46:53;10.70;;;6.60;;
16662;SDS011;8445;51.270;9.434;2023-03-01T09:49:22;11.17;;;6.90;;
16662;SDS011;8445;51.270;9.434;2023-03-01T09:55:07;9.63;;;7.37;;
16662;SDS011;8445;51.270;9.434;2023-03-01T09:57:38;9.90;;;6.93;;
16662;SDS011;8445;51.270;9.434;2023-03-01T10:10:36;10.23;;;6.33;;
16662;SDS011;8445;51.270;9.434;2023-03-01T10:13:40;12.37;;;7.60;;
16662;SDS011;8445;51.270;9.434;2023-03-01T10:19:04;10.53;;;6.20;;
16662;SDS011;8445;51.270;9.434;2023-03-01T10:21:35;9.07;;;6.60;;
16662;SDS011;8445;51.270;9.434;2023-03-01T10:24:15;10.97;;;7.57;;
16662;SDS011;8445;51.270;9.434;2023-03-01T10:26:57;8.40;;;6.60;;
16662;SDS011;8445;51.270;9.434;2023-03-01T10:29:31;10.03;;;7.03;;
16662;SDS011;8445;51.270;9.434;2023-03-01T10:32:04;9.30;;;6.30;;
16662;SDS011;8445;51.270;9.434;2023-03-01T10:34:33;8.67;;;5.97;;
16662;SDS011;8445;51.270;9.434;2023-03-01T10:37:10;11.50;;;6.83;;
16662;SDS011;8445;51.270;9.434;2023-03-01T10:39:41;12.23;;;6.97;;
16662;SDS011;8445;51.270;9.434;2023-03-01T10:42:22;11.33;;;6.73;;
16662;SDS011;8445;51.270;9.434;2023-03-01T10:44:52;9.67;;;7.30;;
16662;SDS011;8445;51.270;9.434;2023-03-01T10:47:21;12.33;;;8.00;;
16662;SDS011;8445;51.270;9.434;2023-03-01T10:49:59;11.27;;;6.33;;
16662;SDS011;8445;51.270;9.434;2023-03-01T10:54:58;9.90;;;6.50;;
16662;SDS011;8445;51.270;9.434;2023-03-01T10:57:43;12.97;;;7.20;;
16662;SDS011;8445;51.270;9.434;2023-03-01T11:00:19;13.73;;;7.07;;
16662;SDS011;8445;51.270;9.434;2023-03-01T11:02:51;11.87;;;7.17;;
16662;SDS011;8445;51.270;9.434;2023-03-01T11:05:28;10.20;;;7.17;;
16662;SDS011;8445;51.270;9.434;2023-03-01T11:07:58;9.43;;;6.73;;
16662;SDS011;8445;51.270;9.434;2023-03-01T11:10:29;9.30;;;6.90;;
16662;SDS011;8445;51.270;9.434;2023-03-01T11:13:07;8.37;;;5.57;;
16662;SDS011;8445;51.270;9.434;2023-03-01T11:15:40;9.40;;;7.50;;
16662;SDS011;8445;51.270;9.434;2023-03-01T11:18:20;11.17;;;6.93;;
16662;SDS011;8445;51.270;9.434;2023-03-01T11:20:51;11.67;;;6.90;;
16662;SDS011;8445;51.270;9.434;2023-03-01T11:23:22;11.73;;;7.40;;
16662;SDS011;8445;51.270;9.434;2023-03-01T11:25:54;9.33;;;6.80;;
16662;SDS011;8445;51.270;9.434;2023-03-01T11:28:22;10.53;;;7.03;;
16662;SDS011;8445;51.270;9.434;2023-03-01T11:30:56;12.07;;;6.53;;
16662;SDS011;8445;51.270;9.434;2023-03-01T11:36:03;11.97;;;7.30;;
16662;SDS011;8445;51.270;9.434;2023-03-01T11:38:34;12.30;;;7.43;;
16662;SDS011;8445;51.270;9.434;2023-03-01T11:41:26;18.93;;;5.67;;
16662;SDS011;8445;51.270;9.434;2023-03-01T11:46:46;10.30;;;6.73;;
16662;SDS011;8445;51.270;9.434;2023-03-01T11:52:30;10.70;;;6.30;;
16662;SDS011;8445;51.270;9.434;2023-03-01T11:55:17;12.97;;;7.97;;
16662;SDS011;8445;51.270;9.434;2023-03-01T12:06:55;10.63;;;7.37;;
16662;SDS011;8445;51.270;9.434;2023-03-01T12:17:14;10.97;;;7.27;;
16662;SDS011;8445;51.270;9.434;2023-03-01T12:25:04;11.00;;;5.73;;
16662;SDS011;8445;51.270;9.434;2023-03-01T12:28:01;11.67;;;7.93;;
16662;SDS011;8445;51.270;9.434;2023-03-01T12:40:28;7.63;;;4.47;;
16662;SDS011;8445;51.270;9.434;2023-03-01T12:43:12;11.13;;;6.97;;
16662;SDS011;8445;51.270;9.434;2023-03-01T12:51:26;13.57;;;6.60;;
16662;SDS011;8445;51.270;9.434;2023-03-01T12:54:11;11.37;;;6.87;;
16662;SDS011;8445;51.270;9.434;2023-03-01T12:56:40;11.87;;;6.83;;
16662;SDS011;8445;51.270;9.434;2023-03-01T13:09:50;9.23;;;6.83;;
16662;SDS011;8445;51.270;9.434;2023-03-01T13:13:29;9.37;;;6.40;;
16662;SDS011;8445;51.270;9.434;2023-03-01T13:15:32;9.97;;;6.93;;
16662;SDS011;8445;51.270;9.434;2023-03-01T13:18:01;8.10;;;5.80;;
16662;SDS011;8445;51.270;9.434;2023-03-01T13:33:46;6.60;;;4.40;;
16662;SDS011;8445;51.270;9.434;2023-03-01T13:36:45;6.60;;;4.67;;
16662;SDS011;8445;51.270;9.434;2023-03-01T13:39:26;8.83;;;6.27;;
16662;SDS011;8445;51.270;9.434;2023-03-01T13:41:53;9.30;;;4.97;;
16662;SDS011;8445;51.270;9.434;2023-03-01T13:46:52;8.90;;;6.63;;
16662;SDS011;8445;51.270;9.434;2023-03-01T13:49:27;10.53;;;6.33;;
16662;SDS011;8445;51.270;9.434;2023-03-01T13:51:56;9.50;;;6.60;;
16662;SDS011;8445;51.270;9.434;2023-03-01T13:54:26;9.50;;;5.83;;
16662;SDS011;8445;51.270;9.434;2023-03-01T13:56:56;11.37;;;6.73;;
16662;SDS011;8445;51.270;9.434;2023-03-01T13:59:24;7.97;;;5.87;;
16662;SDS011;8445;51.270;9.434;2023-03-01T14:01:56;7.73;;;6.30;;
16662;SDS011;8445;51.270;9.434;2023-03-01T14:04:25;6.87;;;5.13;;
16662;SDS011;8445;51.270;9.434;2023-03-01T14:07:20;6.87;;;5.00;;
16662;SDS011;8445;51.270;9.434;2023-03-01T14:09:51;4.90;;;4.40;;
16662;SDS011;8445;51.270;9.434;2023-03-01T14:20:52;9.13;;;4.73;;
16662;SDS011;8445;51.270;9.434;2023-03-01T14:23:19;6.17;;;4.90;;
16662;SDS011;8445;51.270;9.434;2023-03-01T14:25:49;7.67;;;5.00;;
16662;SDS011;8445;51.270;9.434;2023-03-01T14:28:18;6.77;;;4.47;;
16662;SDS011;8445;51.270;9.434;2023-03-01T14:30:47;7.20;;;4.80;;
16662;SDS011;8445;51.270;9.434;2023-03-01T14:35:58;6.57;;;4.77;;
16662;SDS011;8445;51.270;9.434;2023-03-01T14:38:44;7.87;;;5.00;;
16662;SDS011;8445;51.270;9.434;2023-03-01T14:41:15;7.33;;;5.10;;
16662;SDS011;8445;51.270;9.434;2023-03-01T14:43:44;5.70;;;4.43;;
16662;SDS011;8445;51.270;9.434;2023-03-01T14:48:55;5.77;;;4.57;;
16662;SDS011;8445;51.270;9.434;2023-03-01T14:51:38;5.67;;;3.93;;
16662;SDS011;8445;51.270;9.434;2023-03-01T14:57:06;8.17;;;4.70;;
16662;SDS011;8445;51.270;9.434;2023-03-01T14:59:39;8.03;;;4.93;;
16662;SDS011;8445;51.270;9.434;2023-03-01T15:02:15;6.80;;;5.10;;
16662;SDS011;8445;51.270;9.434;2023-03-01T15:04:48;5.73;;;4.83;;
16662;SDS011;8445;51.270;9.434;2023-03-01T15:07:21;11.23;;;5.40;;
16662;SDS011;8445;51.270;9.434;2023-03-01T15:09:53;6.70;;;5.30;;
16662;SDS011;8445;51.270;9.434;2023-03-01T15:14:57;6.63;;;5.27;;
16662;SDS011;8445;51.270;9.434;2023-03-01T15:17:30;7.27;;;4.90;;
16662;SDS011;8445;51.270;9.434;2023-03-01T15:20:04;5.87;;;4.53;;
16662;SDS011;8445;51.270;9.434;2023-03-01T15:22:44;4.83;;;3.30;;
16662;SDS011;8445;51.270;9.434;2023-03-01T15:25:23;6.95;;;4.75;;
16662;SDS011;8445;51.270;9.434;2023-03-01T15:27:55;6.03;;;4.40;;
16662;SDS011;8445;51.270;9.434;2023-03-01T15:30:32;6.33;;;4.47;;
16662;SDS011;8445;51.270;9.434;2023-03-01T15:33:19;6.13;;;4.10;;
16662;SDS011;8445;51.270;9.434;2023-03-01T15:36:04;5.77;;;4.10;;
16662;SDS011;8445;51.270;9.434;2023-03-01T15:39:00;6.33;;;4.80;;
16662;SDS011;8445;51.270;9.434;2023-03-01T15:41:27;7.57;;;4.43;;
16662;SDS011;8445;51.270;9.434;2023-03-01T15:44:17;8.40;;;4.83;;
16662;SDS011;8445;51.270;9.434;2023-03-01T15:46:53;10.43;;;5.70;;
16662;SDS011;8445;51.270;9.434;2023-03-01T15:51:50;8.10;;;4.63;;
16662;SDS011;8445;51.270;9.434;2023-03-01T15:54:23;8.60;;;5.33;;
16662;SDS011;8445;51.270;9.434;2023-03-01T15:56:55;7.40;;;5.20;;
16662;SDS011;8445;51.270;9.434;2023-03-01T15:59:25;6.87;;;4.90;;
16662;SDS011;8445;51.270;9.434;2023-03-01T16:01:54;6.63;;;4.77;;
16662;SDS011;8445;51.270;9.434;2023-03-01T16:04:23;4.97;;;2.90;;
16662;SDS011;8445;51.270;9.434;2023-03-01T16:06:52;6.70;;;5.27;;
16662;SDS011;8445;51.270;9.434;2023-03-01T16:09:22;8.33;;;5.63;;
16662;SDS011;8445;51.270;9.434;2023-03-01T16:11:49;8.10;;;5.30;;
16662;SDS011;8445;51.270;9.434;2023-03-01T16:14:18;6.63;;;4.77;;
16662;SDS011;8445;51.270;9.434;2023-03-01T16:16:44;9.43;;;5.13;;
16662;SDS011;8445;51.270;9.434;2023-03-01T16:19:10;9.17;;;5.50;;
16662;SDS011;8445;51.270;9.434;2023-03-01T16:21:36;8.87;;;5.57;;
16662;SDS011;8445;51.270;9.434;2023-03-01T16:24:05;9.53;;;5.90;;
16662;SDS011;8445;51.270;9.434;2023-03-01T16:26:42;7.13;;;5.57;;
16662;SDS011;8445;51.270;9.434;2023-03-01T16:29:08;12.93;;;6.30;;
16662;SDS011;8445;51.270;9.434;2023-03-01T16:31:33;8.03;;;4.73;;
16662;SDS011;8445;51.270;9.434;2023-03-01T16:33:59;9.03;;;4.90;;
16662;SDS011;8445;51.270;9.434;2023-03-01T16:36:25;7.20;;;4.27;;
16662;SDS011;8445;51.270;9.434;2023-03-01T16:38:53;9.17;;;6.30;;
16662;SDS011;8445;51.270;9.434;2023-03-01T16:41:22;7.43;;;5.70;;
16662;SDS011;8445;51.270;9.434;2023-03-01T16:43:48;10.03;;;5.90;;
16662;SDS011;8445;51.270;9.434;2023-03-01T16:46:18;8.63;;;5.33;;
16662;SDS011;8445;51.270;9.434;2023-03-01T16:48:47;7.50;;;5.60;;
16662;SDS011;8445;51.270;9.434;2023-03-01T16:51:13;11.67;;;6.17;;
16662;SDS011;8445;51.270;9.434;2023-03-01T16:53:39;6.50;;;4.40;;
16662;SDS011;8445;51.270;9.434;2023-03-01T16:56:06;8.57;;;4.97;;
16662;SDS011;8445;51.270;9.434;2023-03-01T16:58:34;7.77;;;5.60;;
16662;SDS011;8445;51.270;9.434;2023-03-01T17:01:05;8.03;;;5.10;;
16662;SDS011;8445;51.270;9.434;2023-03-01T17:03:32;9.13;;;5.73;;
16662;SDS011;8445;51.270;9.434;2023-03-01T17:06:00;7.80;;;5.13;;
16662;SDS011;8445;51.270;9.434;2023-03-01T17:08:27;8.37;;;5.43;;
16662;SDS011;8445;51.270;9.434;2023-03-01T17:10:52;8.63;;;5.33;;